Time;durP1;ratioP1;P1;durP2;ratioP2;P2;SDS_P1;SDS_P2;PMS_P1;PMS_P2;Temp;Humidity;BMP_temperature;BMP_pressure;BME280_temperature;BME280_humidity;BME280_pressure;Samples;Min_cycle;Max_cycle;Signal;HPM_P1;HPM_P2
2021/07/19 00:01:21;;;;;;;;;;;19.80;99.90;;;;;;5098655;28;19904;-80
2021/07/19 00:03:47;;;;;;;;;;;19.90;99.90;;;;;;5098355;28;19954;-81
2021/07/19 00:06:12;;;;;;;;;;;20.00;99.90;;;;;;5116333;28;20099;-80
2021/07/19 00:08:38;;;;;;;;;;;19.90;99.90;;;;;;5116891;28;19929;-80
2021/07/19 00:11:04;;;;;;;;;;;19.90;99.90;;;;;;5098554;28;20348;-81
2021/07/19 00:13:29;;;;;;;;;;;19.90;99.90;;;;;;5097909;28;19912;-81
2021/07/19 00:15:55;;;;;;;;;;;19.90;99.90;;;;;;5098383;28;19903;-81
2021/07/19 00:18:21;;;;;;;;;;;19.90;99.90;;;;;;5098362;28;20370;-81
2021/07/19 00:20:47;;;;;;;;;;;19.80;99.90;;;;;;5116495;28;19904;-80
2021/07/19 00:23:12;;;;;;;;;;;19.90;99.90;;;;;;5098026;28;19976;-80
2021/07/19 00:25:38;;;;;;;;;;;19.80;99.90;;;;;;5098389;28;20298;-79
2021/07/19 00:28:03;;;;;;;;;;;19.90;99.90;;;;;;5098194;28;19942;-81
2021/07/19 00:30:29;;;;;;;;;;;19.90;99.90;;;;;;5098268;28;20010;-80
2021/07/19 00:32:55;;;;;;;;;;;19.90;99.90;;;;;;5116287;28;19903;-80
2021/07/19 00:35:20;;;;;;;;;;;19.90;99.90;;;;;;5098074;28;19915;-80
2021/07/19 00:37:46;;;;;;;;;;;19.90;99.90;;;;;;5097487;28;19930;-80
2021/07/19 00:40:13;;;;;;;;;;;19.90;99.90;;;;;;5097846;28;19926;-80
2021/07/19 00:42:40;;;;;;;;;;;19.80;99.90;;;;;;5097751;28;19992;-79
2021/07/19 00:45:10;;;;;;;;;;;19.90;99.90;;;;;;5097995;28;20297;-82
2021/07/19 00:47:35;;;;;;;;;;;19.80;99.90;;;;;;5098457;28;19982;-81
2021/07/19 00:50:01;;;;;;;;;;;19.80;99.90;;;;;;5098182;28;19951;-79
2021/07/19 00:52:26;;;;;;;;;;;19.80;99.90;;;;;;5098005;28;20371;-79
2021/07/19 00:54:52;;;;;;;;;;;19.70;99.90;;;;;;5097856;28;19915;-80
2021/07/19 00:57:21;;;;;;;;;;;19.70;99.90;;;;;;5116254;28;19910;-81
2021/07/19 00:59:46;;;;;;;;;;;19.80;99.90;;;;;;5098083;28;19939;-81
2021/07/19 01:02:13;;;;;;;;;;;19.80;99.90;;;;;;5097578;28;19911;-80
2021/07/19 01:04:40;;;;;;;;;;;19.70;99.90;;;;;;5097458;28;19927;-80
2021/07/19 01:07:06;;;;;;;;;;;19.50;99.90;;;;;;5097721;28;19949;-80
2021/07/19 01:09:31;;;;;;;;;;;19.50;99.90;;;;;;5115814;28;19903;-81
2021/07/19 01:11:57;;;;;;;;;;;19.40;99.90;;;;;;5097452;28;19903;-80
2021/07/19 01:14:23;;;;;;;;;;;19.40;99.90;;;;;;5097609;28;19912;-82
2021/07/19 01:16:49;;;;;;;;;;;19.40;99.90;;;;;;5097886;28;19904;-81
2021/07/19 01:19:14;;;;;;;;;;;19.40;99.90;;;;;;5116256;28;20359;-79
2021/07/19 01:22:12;;;;;;;;;;;19.40;99.90;;;;;;5097452;28;19903;-79
2021/07/19 01:24:40;;;;;;;;;;;19.40;99.90;;;;;;5043288;28;19912;-82
2021/07/19 01:27:24;;;;;;;;;;;19.50;99.90;;;;;;5097533;28;19910;-81
2021/07/19 01:29:50;;;;;;;;;;;19.50;99.90;;;;;;5097947;28;20367;-81
2021/07/19 01:32:17;;;;;;;;;;;19.50;99.90;;;;;;5097884;28;19903;-79
2021/07/19 01:34:43;;;;;;;;;;;19.60;99.90;;;;;;5097169;28;19955;-80
2021/07/19 01:37:09;;;;;;;;;;;19.60;99.90;;;;;;5116775;28;19956;-80
2021/07/19 01:39:36;;;;;;;;;;;19.60;99.90;;;;;;5097890;28;20290;-80
2021/07/19 01:42:03;;;;;;;;;;;19.60;99.90;;;;;;5115691;28;20359;-80
2021/07/19 01:44:28;;;;;;;;;;;19.70;99.90;;;;;;5097441;28;19953;-79
2021/07/19 01:46:55;;;;;;;;;;;19.50;99.90;;;;;;5116446;28;20430;-81
2021/07/19 01:49:21;;;;;;;;;;;19.40;99.90;;;;;;5097353;28;20263;-80
2021/07/19 01:51:47;;;;;;;;;;;19.40;99.90;;;;;;5116192;28;19904;-80
2021/07/19 01:54:13;;;;;;;;;;;19.40;99.90;;;;;;5097196;28;19915;-80
2021/07/19 01:56:39;;;;;;;;;;;19.50;99.90;;;;;;5115581;28;19927;-81
2021/07/19 01:59:04;;;;;;;;;;;19.50;99.90;;;;;;5115562;28;20350;-80
2021/07/19 02:01:31;;;;;;;;;;;19.40;99.90;;;;;;5097443;28;19904;-81
2021/07/19 02:03:56;;;;;;;;;;;19.30;99.90;;;;;;5096760;28;19904;-80
2021/07/19 02:06:23;;;;;;;;;;;19.40;99.90;;;;;;5096719;28;19958;-81
2021/07/19 02:08:50;;;;;;;;;;;19.30;99.90;;;;;;5096905;28;19908;-80
2021/07/19 02:11:17;;;;;;;;;;;19.20;99.90;;;;;;5096420;28;20312;-80
2021/07/19 02:13:43;;;;;;;;;;;19.20;99.90;;;;;;5096179;28;19907;-79
2021/07/19 02:16:10;;;;;;;;;;;19.30;99.90;;;;;;5096423;28;19904;-80
2021/07/19 02:18:38;;;;;;;;;;;19.20;99.90;;;;;;5115056;28;20358;-81
2021/07/19 02:21:04;;;;;;;;;;;19.20;99.90;;;;;;5115269;28;19915;-80
2021/07/19 02:23:31;;;;;;;;;;;19.30;99.90;;;;;;5096238;28;19910;-80
2021/07/19 02:25:57;;;;;;;;;;;19.30;99.90;;;;;;5094171;28;19915;-81
2021/07/19 02:28:22;;;;;;;;;;;19.20;99.90;;;;;;5104900;28;19903;-80
2021/07/19 02:30:48;;;;;;;;;;;19.20;99.90;;;;;;5104944;28;19944;-81
2021/07/19 02:33:19;;;;;;;;;;;19.30;99.90;;;;;;5113289;28;19908;-80
2021/07/19 02:35:45;;;;;;;;;;;19.30;99.90;;;;;;5113777;28;19908;-81
2021/07/19 02:38:10;;;;;;;;;;;19.20;99.90;;;;;;5113428;28;19952;-79
2021/07/19 02:40:37;;;;;;;;;;;19.30;99.90;;;;;;5114610;28;20010;-81
2021/07/19 02:43:04;;;;;;;;;;;19.20;99.90;;;;;;5112762;28;19904;-80
2021/07/19 02:45:31;;;;;;;;;;;19.20;99.90;;;;;;5112999;28;19907;-81
2021/07/19 02:48:00;;;;;;;;;;;19.10;99.90;;;;;;5114400;28;19931;-80
2021/07/19 02:50:26;;;;;;;;;;;19.10;99.90;;;;;;5112976;28;19903;-82
2021/07/19 02:52:55;;;;;;;;;;;19.10;99.90;;;;;;5112565;28;19975;-81
2021/07/19 02:55:21;;;;;;;;;;;19.10;99.90;;;;;;5112545;28;19908;-81
2021/07/19 02:57:47;;;;;;;;;;;19.00;99.90;;;;;;5112319;28;19926;-81
2021/07/19 03:00:13;;;;;;;;;;;19.00;99.90;;;;;;5113266;28;20505;-79
2021/07/19 03:02:41;;;;;;;;;;;19.10;99.90;;;;;;5115637;28;19950;-81
2021/07/19 03:05:07;;;;;;;;;;;19.00;99.90;;;;;;5118190;28;19930;-80
2021/07/19 03:07:33;;;;;;;;;;;19.00;99.90;;;;;;5117619;28;19982;-80
2021/07/19 03:10:00;;;;;;;;;;;19.00;99.90;;;;;;5116247;28;19904;-80
2021/07/19 03:12:26;;;;;;;;;;;18.90;99.90;;;;;;5115889;28;20412;-81
2021/07/19 03:14:53;;;;;;;;;;;18.90;99.90;;;;;;5116320;28;19907;-81
2021/07/19 03:17:19;;;;;;;;;;;18.90;99.90;;;;;;5116391;28;19910;-81
2021/07/19 03:19:46;;;;;;;;;;;18.90;99.90;;;;;;5116172;28;19958;-80
2021/07/19 03:22:13;;;;;;;;;;;18.80;99.90;;;;;;5117469;28;19908;-80
2021/07/19 03:24:39;;;;;;;;;;;18.80;99.90;;;;;;5117412;28;19996;-80
2021/07/19 03:27:04;;;;;;;;;;;18.70;99.90;;;;;;5116015;28;20428;-80
2021/07/19 03:29:31;;;;;;;;;;;18.70;99.90;;;;;;5116184;28;19904;-82
2021/07/19 03:31:57;;;;;;;;;;;18.60;99.90;;;;;;5115752;28;19903;-80
2021/07/19 03:34:23;;;;;;;;;;;18.60;99.90;;;;;;5115892;28;19983;-79
2021/07/19 03:36:52;;;;;;;;;;;18.60;99.90;;;;;;5117282;28;19943;-80
2021/07/19 03:39:19;;;;;;;;;;;18.60;99.90;;;;;;5115531;28;19925;-81
2021/07/19 03:41:44;;;;;;;;;;;18.60;99.90;;;;;;5116837;28;19936;-80
2021/07/19 03:44:11;;;;;;;;;;;18.70;99.90;;;;;;5117184;28;19908;-81
2021/07/19 03:46:38;;;;;;;;;;;18.70;99.90;;;;;;5115449;28;20282;-80
2021/07/19 03:49:05;;;;;;;;;;;18.70;99.90;;;;;;5116547;28;19911;-80
2021/07/19 03:51:32;;;;;;;;;;;18.70;99.90;;;;;;5114973;28;19954;-79
2021/07/19 03:53:58;;;;;;;;;;;18.60;99.90;;;;;;5115076;28;19960;-81
2021/07/19 03:56:27;;;;;;;;;;;18.60;99.90;;;;;;5115468;28;19911;-81
2021/07/19 03:58:53;;;;;;;;;;;18.60;99.90;;;;;;5115507;28;20049;-82
2021/07/19 04:01:19;;;;;;;;;;;18.60;99.90;;;;;;5116612;28;20362;-79
2021/07/19 04:03:48;;;;;;;5.85;3.90;;;18.60;99.90;;;;;;5114171;28;19903;-79
2021/07/19 04:06:17;;;;;;;6.35;3.42;;;18.60;99.90;;;;;;5114481;28;20118;-81
2021/07/19 04:08:44;;;;;;;5.90;3.63;;;18.70;99.90;;;;;;5115081;28;20030;-80
2021/07/19 04:11:11;;;;;;;6.20;3.55;;;18.80;99.90;;;;;;5115982;28;20103;-80
2021/07/19 04:13:38;;;;;;;;;;;18.80;99.90;;;;;;5114048;28;20051;-81
2021/07/19 04:16:04;;;;;;;;;;;18.80;99.90;;;;;;5114907;28;20005;-80
2021/07/19 04:18:30;;;;;;;;;;;18.80;99.90;;;;;;5115477;28;19951;-79
2021/07/19 04:20:56;;;;;;;;;;;18.90;99.90;;;;;;5114832;28;19904;-80
2021/07/19 04:23:23;;;;;;;;;;;18.90;99.90;;;;;;5115544;28;19935;-80
2021/07/19 04:25:48;;;;;;;;;;;18.80;99.90;;;;;;5115242;28;19956;-80
2021/07/19 04:28:15;;;;;;;;;;;18.80;99.90;;;;;;5114763;28;19904;-80
2021/07/19 04:30:41;;;;;;;;;;;18.80;99.90;;;;;;5114999;28;19908;-80
2021/07/19 04:33:06;;;;;;;;;;;18.80;99.90;;;;;;5114689;28;19960;-81
2021/07/19 04:35:32;;;;;;;;;;;18.90;99.90;;;;;;5114761;28;19908;-80
2021/07/19 04:37:57;;;;;;;;;;;19.00;99.90;;;;;;5114478;28;19903;-80
2021/07/19 04:40:25;;;;;;;;;;;19.00;99.90;;;;;;5115790;28;19914;-80
2021/07/19 04:42:50;;;;;;;;;;;19.00;99.90;;;;;;5113399;28;19907;-81
2021/07/19 04:45:18;;;;;;;;;;;19.10;99.90;;;;;;5112488;28;19903;-80
2021/07/19 04:47:44;;;;;;;;;;;19.20;99.90;;;;;;5112853;28;19968;-80
2021/07/19 04:50:11;;;;;;;;;;;19.30;99.90;;;;;;5114532;28;19908;-80
2021/07/19 04:52:37;;;;;;;;;;;19.30;99.90;;;;;;5113329;28;19998;-81
2021/07/19 04:55:03;;;;;;;;;;;19.40;99.90;;;;;;5113431;28;20014;-81
2021/07/19 04:57:29;;;;;;;;;;;19.40;99.90;;;;;;5113670;28;19903;-81
2021/07/19 04:59:57;;;;;;;;;;;19.40;99.90;;;;;;5113320;28;19929;-80
2021/07/19 05:02:25;;;;;;;;;;;19.60;99.90;;;;;;5114594;28;19904;-80
2021/07/19 05:04:51;;;;;;;;;;;19.70;99.90;;;;;;5115376;28;20336;-79
2021/07/19 05:07:18;;;;;;;;;;;19.70;99.90;;;;;;5113690;27;20009;-79
2021/07/19 05:09:45;;;;;;;;;;;19.60;99.90;;;;;;5112547;28;19914;-79
2021/07/19 05:12:11;;;;;;;;;;;19.50;99.90;;;;;;5112708;28;19903;-79
2021/07/19 05:14:38;;;;;;;;;;;19.70;99.90;;;;;;5104222;28;19951;-80
2021/07/19 05:17:04;;;;;;;;;;;19.80;99.90;;;;;;5084937;28;19907;-80
2021/07/19 05:19:29;;;;;;;;;;;19.70;99.90;;;;;;5106524;28;19903;-79
2021/07/19 05:21:54;;;;;;;;;;;19.90;99.90;;;;;;5096173;28;19925;-79
2021/07/19 05:24:28;;;;;;;;;;;20.10;99.90;;;;;;5095626;28;19982;-79
2021/07/19 05:26:54;;;;;;;;;;;20.30;99.90;;;;;;5096442;28;20282;-81
2021/07/19 05:29:19;;;;;;;;;;;20.30;99.90;;;;;;5096790;28;19911;-81
2021/07/19 05:31:45;;;;;;;;;;;20.30;99.90;;;;;;5115159;28;19925;-80
2021/07/19 05:34:10;;;;;;;;;;;20.40;99.90;;;;;;5096435;28;19911;-80
2021/07/19 05:36:35;;;;;;;;;;;20.50;99.90;;;;;;5097310;28;19931;-81
2021/07/19 05:39:01;;;;;;;;;;;20.70;99.90;;;;;;5097286;28;19903;-80
2021/07/19 05:41:27;;;;;;;;;;;20.70;99.90;;;;;;5099098;28;19904;-79
2021/07/19 05:43:52;;;;;;;;;;;20.90;99.90;;;;;;5097313;28;19911;-80
2021/07/19 05:46:17;;;;;;;;;;;21.00;99.90;;;;;;5097171;28;19981;-79
2021/07/19 05:48:43;;;;;;;;;;;21.10;99.90;;;;;;5091571;28;19912;-80
2021/07/19 05:51:08;;;;;;;;;;;21.40;99.90;;;;;;5114766;28;19990;-82
2021/07/19 05:53:34;;;;;;;;;;;21.30;99.90;;;;;;5096489;28;20397;-81
2021/07/19 05:55:59;;;;;;;;;;;21.50;99.90;;;;;;5097913;28;20385;-82
2021/07/19 05:58:25;;;;;;;;;;;21.80;99.90;;;;;;5075846;28;19911;-83
2021/07/19 06:00:50;;;;;;;;;;;21.70;99.90;;;;;;5094816;28;19978;-80
2021/07/19 06:03:16;;;;;;;;;;;21.90;99.90;;;;;;5076484;28;19904;-80
2021/07/19 06:05:42;;;;;;;;;;;22.10;99.90;;;;;;5075969;28;19994;-80
2021/07/19 06:08:08;;;;;;;;;;;22.20;99.90;;;;;;5093164;28;19935;-82
2021/07/19 06:10:33;;;;;;;;;;;22.40;99.90;;;;;;5096411;28;19908;-81
2021/07/19 06:12:59;;;;;;;;;;;22.30;99.90;;;;;;5091358;28;20302;-80
2021/07/19 06:15:24;;;;;;;;;;;22.30;99.90;;;;;;5107399;28;20290;-81
2021/07/19 06:17:50;;;;;;;;;;;22.60;99.90;;;;;;5106927;28;19911;-82
2021/07/19 06:20:17;;;;;;;;;;;22.70;99.90;;;;;;5115057;28;19904;-81
2021/07/19 06:22:43;;;;;;;;;;;22.80;99.90;;;;;;5113801;28;19910;-81
2021/07/19 06:25:10;;;;;;;;;;;23.00;99.90;;;;;;5115499;28;19903;-82
2021/07/19 06:27:35;;;;;;;;;;;22.90;99.90;;;;;;5114612;28;19947;-80
2021/07/19 06:30:01;;;;;;;;;;;23.30;99.90;;;;;;5113234;28;20274;-80
2021/07/19 06:32:26;;;;;;;;;;;23.30;99.90;;;;;;5113559;28;20320;-80
2021/07/19 06:34:52;;;;;;;;;;;23.40;99.90;;;;;;5113414;28;19915;-81
2021/07/19 06:37:17;;;;;;;;;;;23.50;99.90;;;;;;5115832;28;20010;-81
2021/07/19 06:39:42;;;;;;;;;;;23.60;99.90;;;;;;5116951;28;19903;-80
2021/07/19 06:42:08;;;;;;;;;;;23.90;99.90;;;;;;5116827;28;19904;-81
2021/07/19 06:44:33;;;;;;;;;;;24.10;99.90;;;;;;5117758;28;19911;-81
2021/07/19 06:46:59;;;;;;;;;;;24.20;99.90;;;;;;5099509;28;19957;-81
2021/07/19 06:49:27;;;;;;;;;;;24.40;99.90;;;;;;5099607;28;19935;-82
2021/07/19 06:51:53;;;;;;;;;;;24.80;99.90;;;;;;5100320;28;20278;-82
2021/07/19 06:54:19;;;;;;;;;;;25.20;99.90;;;;;;5118084;28;24064;-82
2021/07/19 06:56:45;;;;;;;;;;;25.10;99.90;;;;;;5099088;28;19903;-81
2021/07/19 06:59:12;;;;;;;;;;;25.10;99.90;;;;;;5099038;28;20007;-80
2021/07/19 07:01:39;;;;;;;;;;;25.20;99.90;;;;;;5118168;28;19904;-82
2021/07/19 07:04:05;;;;;;;;;;;25.60;99.90;;;;;;5118498;28;20600;-80
2021/07/19 07:06:30;;;;;;;;;;;25.20;99.90;;;;;;5099455;28;20306;-81
2021/07/19 07:08:59;;;;;;;;;;;25.50;99.90;;;;;;5099486;28;20531;-82
2021/07/19 07:11:24;;;;;;;;;;;25.70;99.90;;;;;;5118508;28;20106;-81
2021/07/19 07:13:49;;;;;;;;;;;25.50;99.90;;;;;;5099165;28;20058;-81
2021/07/19 07:16:15;;;;;;;;;;;25.80;99.90;;;;;;5099017;28;19904;-81
2021/07/19 07:18:40;;;;;;;;;;;25.60;99.90;;;;;;5118014;28;20380;-81
2021/07/19 07:21:06;;;;;;;;;;;25.60;99.90;;;;;;5098127;28;19904;-81
2021/07/19 07:23:31;;;;;;;;;;;25.80;99.90;;;;;;5110316;28;20017;-81
2021/07/19 07:25:57;;;;;;;;;;;25.60;99.90;;;;;;5097556;28;20383;-82
2021/07/19 07:28:22;;;;;;;;;;;25.80;99.90;;;;;;5099550;28;20358;-81
2021/07/19 07:30:48;;;;;;;;;;;26.20;99.90;;;;;;5097243;28;20059;-81
2021/07/19 07:33:13;;;;;;;;;;;26.30;99.90;;;;;;5080365;28;19908;-80
2021/07/19 07:35:40;;;;;;;;;;;26.10;99.90;;;;;;5098552;28;20516;-81
2021/07/19 07:38:07;;;;;;;;;;;26.00;99.90;;;;;;5099147;28;20502;-81
2021/07/19 07:40:32;;;;;;;;;;;26.20;99.90;;;;;;5117555;28;20020;-82
2021/07/19 07:42:58;;;;;;;;;;;26.20;99.90;;;;;;5114585;28;23635;-81
2021/07/19 07:45:23;;;;;;;;;;;26.00;99.90;;;;;;5078532;28;20039;-81
2021/07/19 07:47:49;;;;;;;;;;;26.20;99.90;;;;;;5078467;28;20080;-81
2021/07/19 07:50:14;;;;;;;;;;;26.30;99.90;;;;;;5096889;28;20495;-81
2021/07/19 07:52:40;;;;;;;;;;;26.50;99.90;;;;;;5096425;28;20044;-81
2021/07/19 07:55:06;;;;;;;;;;;26.10;99.90;;;;;;5096309;28;20027;-83
2021/07/19 07:57:32;;;;;;;;;;;26.20;99.90;;;;;;5078256;28;20030;-79
2021/07/19 07:59:57;;;;;;;;;;;26.60;99.90;;;;;;5096318;28;20570;-79
2021/07/19 08:02:23;;;;;;;;;;;26.80;99.90;;;;;;5078120;28;20041;-81
2021/07/19 08:04:48;;;;;;;;;;;26.30;99.90;;;;;;5077732;28;20511;-81
2021/07/19 08:07:14;;;;;;;;;;;26.10;99.90;;;;;;5095889;28;20055;-81
2021/07/19 08:09:39;;;;;;;;;;;26.00;99.90;;;;;;5077604;28;19904;-81
2021/07/19 08:12:05;;;;;;;;;;;26.40;99.90;;;;;;5077228;28;20388;-81
2021/07/19 08:14:30;;;;;;;;;;;26.60;99.90;;;;;;5076882;28;19908;-83
2021/07/19 08:16:56;;;;;;;;;;;26.30;99.90;;;;;;5076978;28;19904;-81
2021/07/19 08:19:24;;;;;;;;;;;26.20;99.90;;;;;;5095599;28;19957;-81
2021/07/19 08:21:52;;;;;;;;;;;26.10;99.90;;;;;;5102487;28;19965;-82
2021/07/19 08:24:18;;;;;;;;;;;26.20;99.90;;;;;;5096480;28;20445;-81
2021/07/19 08:26:43;;;;;;;;;;;26.50;99.90;;;;;;5097293;28;24075;-80
2021/07/19 08:29:09;;;;;;;;;;;26.80;99.90;;;;;;5115936;28;19978;-82
2021/07/19 08:31:35;;;;;;;;;;;27.10;99.90;;;;;;5097198;28;24086;-81
2021/07/19 08:34:01;;;;;;;;;;;27.30;99.90;;;;;;5097253;28;24064;-82
2021/07/19 08:36:26;;;;;;;;;;;26.80;99.90;;;;;;5097048;28;19910;-80
2021/07/19 08:38:52;;;;;;;;;;;26.60;99.90;;;;;;5096884;28;24109;-80
2021/07/19 08:41:17;;;;;;;;;;;26.40;99.90;;;;;;5096957;28;24059;-81
2021/07/19 08:43:44;;;;;;;;;;;26.80;99.90;;;;;;5096769;28;19947;-80
2021/07/19 08:46:10;;;;;;;;;;;26.90;99.90;;;;;;5096498;28;20027;-80
2021/07/19 08:48:36;;;;;;;;;;;26.80;99.90;;;;;;5096872;28;20358;-81
2021/07/19 08:51:02;;;;;;;;;;;26.90;99.90;;;;;;5096446;28;20473;-80
2021/07/19 08:53:28;;;;;;;;;;;27.00;99.90;;;;;;5096326;28;19986;-81
2021/07/19 08:55:55;;;;;;;;;;;26.90;99.90;;;;;;5096344;28;20015;-81
2021/07/19 08:58:20;;;;;;;;;;;27.70;99.90;;;;;;5095861;28;20075;-80
2021/07/19 09:00:47;;;;;;;;;;;27.40;99.90;;;;;;5096809;28;20033;-78
2021/07/19 09:03:12;;;;;;;;;;;27.40;99.90;;;;;;5096420;28;19907;-80
2021/07/19 09:05:37;;;;;;;;;;;27.50;99.90;;;;;;5096579;28;20423;-81
2021/07/19 09:08:06;;;;;;;;;;;27.00;99.90;;;;;;5096899;28;20002;-79
2021/07/19 09:10:32;;;;;;;;;;;27.20;99.90;;;;;;5096596;28;24064;-81
2021/07/19 09:13:01;;;;;;;;;;;27.20;99.90;;;;;;5096813;28;19903;-80
2021/07/19 09:15:34;;;;;;;;;;;27.50;99.90;;;;;;5114641;28;24070;-81
2021/07/19 09:17:59;;;;;;;;;;;27.10;99.90;;;;;;5095974;28;19904;-80
2021/07/19 09:20:29;;;;;;;;;;;27.50;99.90;;;;;;5096369;28;19911;-81
2021/07/19 09:22:55;;;;;;;;;;;27.70;99.90;;;;;;5080266;28;20052;-80
2021/07/19 09:25:20;;;;;;;;;;;28.30;99.90;;;;;;5094463;28;19908;-82
2021/07/19 09:27:57;;;;;;;;;;;27.80;99.90;;;;;;5094421;28;19904;-80
2021/07/19 09:30:25;;;;;;;;;;;27.80;99.90;;;;;;5090407;28;19904;-81
2021/07/19 09:32:54;;;;;;;;;;;28.50;99.90;;;;;;5096288;28;19903;-80
2021/07/19 09:35:20;;;;;;;;;;;28.70;99.90;;;;;;5113927;28;19908;-80
2021/07/19 09:37:45;;;;;;;;;;;28.90;99.90;;;;;;5112944;28;19956;-80
2021/07/19 09:40:11;;;;;;;;;;;28.70;99.90;;;;;;5094387;28;20485;-81
2021/07/19 09:42:43;;;;;;;;;;;27.70;99.90;;;;;;5095056;28;20033;-82
2021/07/19 09:45:09;;;;;;;;;;;27.60;99.90;;;;;;5080588;28;24065;-80
2021/07/19 09:47:40;;;;;;;;;;;27.40;99.90;;;;;;5074544;28;20332;-81
2021/07/19 09:50:10;;;;;;;;;;;26.70;99.90;;;;;;5074627;28;19998;-80
2021/07/19 09:52:35;;;;;;;;;;;26.50;99.90;;;;;;5074726;28;24060;-80
2021/07/19 09:55:01;;;;;;;;;;;26.30;99.90;;;;;;5075434;28;19973;-80
2021/07/19 09:57:26;;;;;;;;;;;26.10;99.90;;;;;;5075283;28;19947;-81
2021/07/19 09:59:53;;;;;;;;;;;26.50;99.90;;;;;;5075026;28;20104;-80
2021/07/19 10:02:32;;;;;;;;;;;26.60;99.90;;;;;;5075125;28;19904;-80
2021/07/19 10:04:57;;;;;;;;;;;26.50;99.90;;;;;;5104125;28;20355;-79
2021/07/19 10:07:26;;;;;;;;;;;26.80;99.90;;;;;;5086659;28;20006;-80
2021/07/19 10:09:59;;;;;;;;;;;28.00;99.90;;;;;;5103393;28;20438;-80
2021/07/19 10:12:25;;;;;;;;;;;28.50;99.90;;;;;;5084939;28;19955;-80
2021/07/19 10:14:50;;;;;;;;;;;28.60;99.90;;;;;;5083647;28;19939;-80
2021/07/19 10:17:16;;;;;;;;;;;28.50;99.90;;;;;;5084378;28;19912;-82
2021/07/19 10:19:42;;;;;;;;;;;28.50;99.90;;;;;;5084669;28;19907;-82
2021/07/19 10:22:09;;;;;;;;;;;27.30;99.90;;;;;;5085491;28;19904;-82
2021/07/19 10:24:34;;;;;;;;;;;27.20;99.90;;;;;;5084166;28;19904;-82
2021/07/19 10:27:00;;;;;;;;;;;27.60;99.90;;;;;;5087268;28;19991;-84
2021/07/19 10:29:26;;;;;;;;;;;27.90;99.90;;;;;;5087030;28;20007;-84
2021/07/19 10:31:51;;;;;;;;;;;27.60;99.90;;;;;;5085618;28;19930;-80
2021/07/19 10:34:18;;;;;;;;;;;28.00;99.90;;;;;;5088032;28;19913;-80
2021/07/19 10:36:47;;;;;;;;;;;28.30;99.90;;;;;;5105052;28;19991;-82
2021/07/19 10:39:19;;;;;;;;;;;28.40;99.90;;;;;;5084974;28;19903;-83
2021/07/19 10:41:44;;;;;;;;;;;28.90;99.90;;;;;;5084498;28;19908;-84
2021/07/19 10:44:14;;;;;;;;;;;28.90;99.90;;;;;;5087473;28;20355;-82
2021/07/19 10:46:41;;;;;;;;;;;29.60;99.90;;;;;;5085757;28;20367;-83
2021/07/19 10:49:06;;;;;;;;;;;29.60;99.90;;;;;;5097102;28;19908;-81
2021/07/19 10:51:39;;;;;;;;;;;28.60;99.90;;;;;;5083315;28;19931;-81
2021/07/19 10:54:12;;;;;;;;;;;28.70;99.90;;;;;;5073960;28;19915;-81
2021/07/19 10:56:37;;;;;;;;;;;29.10;99.90;;;;;;5091740;28;19944;-79
2021/07/19 10:59:03;;;;;;;;;;;29.90;99.90;;;;;;5083443;28;19970;-83
2021/07/19 11:01:29;;;;;;;;;;;29.90;99.90;;;;;;5086887;28;19911;-83
2021/07/19 11:03:55;;;;;;;;;;;29.20;99.90;;;;;;5081691;28;19918;-82
2021/07/19 11:06:30;;;;;;;;;;;29.20;99.90;;;;;;5091469;28;19910;-83
2021/07/19 11:08:56;;;;;;;;;;;28.20;99.90;;;;;;5086537;28;19904;-81
2021/07/19 11:11:25;;;;;;;;;;;27.20;99.90;;;;;;5090409;28;20420;-84
2021/07/19 11:14:04;;;;;;;;;;;27.10;99.90;;;;;;5097013;28;19904;-84
2021/07/19 11:16:52;;;;;;;;;;;27.80;99.90;;;;;;5098200;28;19943;-80
2021/07/19 11:19:36;;;;;;;;;;;28.30;99.90;;;;;;5077576;28;19915;-81
2021/07/19 11:22:23;;;;;;;;;;;28.40;99.90;;;;;;5096868;28;19904;-83
2021/07/19 11:24:51;;;;;;;;;;;28.50;99.90;;;;;;5082113;28;19908;-85
2021/07/19 11:27:27;;;;;;;;;;;28.90;99.90;;;;;;5081352;28;19911;-79
2021/07/19 11:30:19;;;;;;;;;;;28.70;99.90;;;;;;5081928;28;19911;-82
2021/07/19 11:32:45;;;;;;;;;;;28.90;99.90;;;;;;5094690;28;19904;-83
2021/07/19 11:35:11;;;;;;;;;;;29.10;99.90;;;;;;5099495;28;19915;-82
2021/07/19 11:37:37;;;;;;;;;;;29.00;99.90;;;;;;5081054;28;20374;-83
2021/07/19 11:40:04;;;;;;;;;;;29.00;99.90;;;;;;5080728;28;19904;-80
2021/07/19 11:42:36;;;;;;;;;;;28.90;99.90;;;;;;5080942;28;19919;-83
2021/07/19 11:45:15;;;;;;;;;;;29.00;99.90;;;;;;5081676;28;19911;-83
2021/07/19 11:47:48;;;;;;;;;;;28.70;99.90;;;;;;5080803;28;19972;-82
2021/07/19 11:50:14;;;;;;;;;;;28.60;99.90;;;;;;5080975;28;20363;-84
2021/07/19 11:52:41;;;;;;;;;;;28.20;99.90;;;;;;5081332;28;19904;-82
2021/07/19 11:55:10;;;;;;;;;;;28.20;99.90;;;;;;5113522;28;19907;-82
2021/07/19 11:57:39;;;;;;;;;;;28.30;99.90;;;;;;5100865;28;19904;-83
2021/07/19 12:00:05;;;;;;;;;;;28.30;99.90;;;;;;5100221;28;20427;-82
2021/07/19 12:02:31;;;;;;;;;;;28.40;99.90;;;;;;5100036;28;19904;-82
2021/07/19 12:04:56;;;;;;;;;;;28.60;99.90;;;;;;5119397;28;20381;-82
2021/07/19 12:07:26;;;;;;;;;;;28.70;99.90;;;;;;5100683;28;19907;-82
2021/07/19 12:09:58;;;;;;;;;;;29.00;99.90;;;;;;5101206;28;19998;-80
2021/07/19 12:12:24;;;;;;;;;;;28.70;99.90;;;;;;5100171;28;20022;-80
2021/07/19 12:14:59;;;;;;;;;;;28.70;99.90;;;;;;5100413;28;20378;-82
2021/07/19 12:17:25;;;;;;;;;;;28.50;99.90;;;;;;5100693;28;19908;-83
2021/07/19 12:19:50;;;;;;;;;;;29.10;99.90;;;;;;5100834;28;19972;-84
2021/07/19 12:22:17;;;;;;;;;;;29.20;99.90;;;;;;5101223;28;20274;-84
2021/07/19 12:24:43;;;;;;;;;;;29.20;99.90;;;;;;5100754;28;19904;-83
2021/07/19 12:27:08;;;;;;;;;;;28.70;99.90;;;;;;5100622;28;19971;-82
2021/07/19 12:29:36;;;;;;;;;;;28.70;99.90;;;;;;5100240;28;19911;-81
2021/07/19 12:32:06;;;;;;;;;;;28.80;99.90;;;;;;5100446;28;19971;-82
2021/07/19 12:34:35;;;;;;;;;;;28.80;99.90;;;;;;5118051;28;19907;-83
2021/07/19 12:37:03;;;;;;;;;;;28.70;99.90;;;;;;5101008;28;19911;-81
2021/07/19 12:39:29;;;;;;;;;;;28.50;99.90;;;;;;5118550;28;19911;-82
2021/07/19 12:41:55;;;;;;;;;;;28.40;99.90;;;;;;5118526;28;19904;-81
2021/07/19 12:44:25;;;;;;;;;;;28.50;99.90;;;;;;5097573;28;20378;-81
2021/07/19 12:46:52;;;;;;;;;;;28.30;99.90;;;;;;5097938;28;20305;-83
2021/07/19 12:49:44;;;;;;;;;;;28.40;99.90;;;;;;5116241;28;19908;-81
2021/07/19 12:52:11;;;;;;;;;;;28.70;99.90;;;;;;5092879;28;19911;-82
2021/07/19 12:54:37;;;;;;;;;;;28.60;99.90;;;;;;5105442;28;19951;-80
2021/07/19 12:57:03;;;;;;;;;;;28.80;99.90;;;;;;5077478;28;19904;-83
2021/07/19 12:59:29;;;;;;;;;;;29.00;99.90;;;;;;5091812;27;19941;-82
2021/07/19 13:01:56;;;;;;;;;;;28.70;99.90;;;;;;5125645;27;19998;-82
2021/07/19 13:04:22;;;;;;;;;;;28.30;99.90;;;;;;5093621;28;19943;-83
2021/07/19 13:06:48;;;;;;;;;;;28.60;99.90;;;;;;5116184;28;19910;-82
2021/07/19 13:09:22;;;;;;;;;;;28.50;99.90;;;;;;5097678;28;20273;-82
2021/07/19 13:11:51;;;;;;;;;;;28.50;99.90;;;;;;5085007;28;19966;-83
2021/07/19 13:14:18;;;;;;;;;;;28.60;99.90;;;;;;5081445;28;19919;-81
2021/07/19 13:16:55;;;;;;;;;;;29.20;99.90;;;;;;5088598;28;19904;-81
2021/07/19 13:19:28;;;;;;;;;;;29.20;99.90;;;;;;5077769;28;19953;-83
2021/07/19 13:21:57;;;;;;;;;;;29.40;99.90;;;;;;5088335;28;19908;-79
2021/07/19 13:24:22;;;;;;;;;;;29.60;99.90;;;;;;5099190;28;19957;-82
2021/07/19 13:26:50;;;;;;;;;;;29.20;99.90;;;;;;5078077;28;19907;-83
2021/07/19 13:29:16;;;;;;;;;;;29.00;99.90;;;;;;5076634;28;20027;-81
2021/07/19 13:31:42;;;;;;;;;;;28.60;99.90;;;;;;5076749;28;19955;-84
2021/07/19 13:34:14;;;;;;;;;;;28.70;99.90;;;;;;5076731;28;20363;-81
2021/07/19 13:36:45;;;;;;;;;;;28.70;99.90;;;;;;5076489;28;19911;-81
2021/07/19 13:39:10;;;;;;;;;;;28.80;99.90;;;;;;5095493;28;19989;-82
2021/07/19 13:41:36;;;;;;;;;;;28.80;99.90;;;;;;5090432;28;19908;-85
2021/07/19 13:44:01;;;;;;;;;;;28.80;99.90;;;;;;5093122;28;20406;-83
2021/07/19 13:46:28;;;;;;;;;;;28.70;99.90;;;;;;5093584;28;20370;-83
2021/07/19 13:48:53;;;;;;;;;;;28.80;99.80;;;;;;5097646;28;19991;-82
2021/07/19 13:51:19;;;;;;;;;;;28.60;99.60;;;;;;5096640;28;19997;-82
2021/07/19 13:53:44;;;;;;;;;;;28.70;99.90;;;;;;5082246;28;19911;-82
2021/07/19 13:56:09;;;;;;;;;;;28.80;99.90;;;;;;5104159;28;19908;-82
2021/07/19 13:58:38;;;;;;;;;;;28.70;99.90;;;;;;5079306;28;19950;-82
2021/07/19 14:01:04;;;;;;;;;;;29.10;99.90;;;;;;5083590;28;20055;-82
2021/07/19 14:03:29;;;;;;;;;;;29.00;99.70;;;;;;5076966;28;19904;-82
2021/07/19 14:05:55;;;;;;;;;;;28.40;98.70;;;;;;5077185;28;19904;-83
2021/07/19 14:08:23;;;;;;;;;;;28.50;99.10;;;;;;5077166;28;19953;-82
2021/07/19 14:10:49;;;;;;;;;;;28.60;99.90;;;;;;5095415;28;19908;-81
2021/07/19 14:13:14;;;;;;;;;;;28.60;98.90;;;;;;5077110;28;20335;-82
2021/07/19 14:15:40;;;;;;;;;;;28.50;99.00;;;;;;5076848;28;19989;-81